createdAt,value
2017-11-07T00:00:20.467Z,5.80
2017-11-07T00:02:48.030Z,5.74
2017-11-07T00:05:15.586Z,5.81
2017-11-07T00:07:43.082Z,5.84
2017-11-07T00:10:16.083Z,5.90
2017-11-07T00:12:43.564Z,5.92
2017-11-07T00:15:11.090Z,5.83
2017-11-07T00:17:38.586Z,6.13
2017-11-07T00:20:06.089Z,5.87
2017-11-07T00:22:35.392Z,6.00
2017-11-07T00:25:02.914Z,5.85
2017-11-07T00:27:30.422Z,6.07
2017-11-07T00:29:57.941Z,6.05
2017-11-07T00:32:25.433Z,6.12
2017-11-07T00:34:52.936Z,6.11
2017-11-07T00:37:20.434Z,6.00
2017-11-07T00:39:47.924Z,5.93
2017-11-07T00:42:15.430Z,5.91
2017-11-07T00:44:42.927Z,6.03
2017-11-07T00:47:10.410Z,6.08
2017-11-07T00:49:37.941Z,5.98
2017-11-07T00:52:05.462Z,6.14
2017-11-07T00:54:33.006Z,6.11
2017-11-07T00:57:00.500Z,6.11
2017-11-07T00:59:27.997Z,5.96
2017-11-07T01:01:55.546Z,5.95
2017-11-07T01:04:23.039Z,6.08
2017-11-07T01:06:50.551Z,6.08
2017-11-07T01:09:18.050Z,6.03
2017-11-07T01:11:45.539Z,6.08
2017-11-07T01:14:13.055Z,6.11
2017-11-07T01:16:40.543Z,6.07
2017-11-07T01:19:08.038Z,6.08
2017-11-07T01:21:35.540Z,6.11
2017-11-07T01:24:03.056Z,6.03
2017-11-07T01:26:30.542Z,6.03
2017-11-07T01:28:58.064Z,6.08
2017-11-07T01:31:25.568Z,5.97
2017-11-07T01:33:53.070Z,5.94
2017-11-07T01:36:20.594Z,5.95
2017-11-07T01:38:48.148Z,6.03
2017-11-07T01:41:15.704Z,5.98
2017-11-07T01:43:43.216Z,6.07
2017-11-07T01:46:10.716Z,6.06
2017-11-07T01:48:38.218Z,6.00
2017-11-07T01:51:05.741Z,5.90
2017-11-07T01:53:33.236Z,5.89
2017-11-07T01:56:00.744Z,5.97
2017-11-07T01:58:28.234Z,6.01
2017-11-07T02:00:55.838Z,5.86
2017-11-07T02:03:23.341Z,5.83
2017-11-07T02:05:50.837Z,6.05
2017-11-07T02:08:18.337Z,5.94
2017-11-07T02:10:45.851Z,5.88
2017-11-07T02:13:13.346Z,6.00
2017-11-07T02:15:40.856Z,6.22
2017-11-07T02:18:08.365Z,5.96
2017-11-07T02:20:35.856Z,5.84
2017-11-07T02:23:03.353Z,5.91
2017-11-07T02:25:30.857Z,5.88
2017-11-07T02:27:58.368Z,5.94
2017-11-07T02:30:25.866Z,6.02
2017-11-07T02:32:53.375Z,6.05
2017-11-07T02:35:20.883Z,5.94
2017-11-07T02:37:48.411Z,6.13
2017-11-07T02:40:15.908Z,6.20
2017-11-07T02:42:43.418Z,6.25
2017-11-07T02:45:10.903Z,6.12
2017-11-07T02:47:38.396Z,5.94
2017-11-07T02:50:05.908Z,5.94
2017-11-07T02:52:33.409Z,5.98
2017-11-07T02:55:00.904Z,6.01
2017-11-07T02:57:28.398Z,5.99
2017-11-07T02:59:55.898Z,6.05
2017-11-07T03:02:23.407Z,5.93
2017-11-07T03:04:50.918Z,5.85
2017-11-07T03:07:18.417Z,5.87
2017-11-07T03:09:45.923Z,6.04
2017-11-07T03:12:13.420Z,6.07
2017-11-07T03:14:40.935Z,5.90
2017-11-07T03:17:08.460Z,5.86
2017-11-07T03:19:35.974Z,5.86
2017-11-07T03:22:03.500Z,5.96
2017-11-07T03:24:31.002Z,6.14
2017-11-07T03:26:58.500Z,6.02
2017-11-07T03:29:26.017Z,6.03
2017-11-07T03:31:53.524Z,6.01
2017-11-07T03:34:21.033Z,5.99
2017-11-07T03:36:48.537Z,6.09
2017-11-07T03:39:16.045Z,5.92
2017-11-07T03:41:43.567Z,6.04
2017-11-07T03:44:11.072Z,5.96
2017-11-07T03:46:38.568Z,6.16
2017-11-07T03:49:06.078Z,6.12
2017-11-07T03:51:33.706Z,6.02
2017-11-07T03:54:01.221Z,6.20
2017-11-07T03:56:28.854Z,6.04
2017-11-07T03:58:56.364Z,6.12
2017-11-07T04:01:23.857Z,5.98
2017-11-07T04:03:51.359Z,6.07
2017-11-07T04:06:18.865Z,6.16
2017-11-07T04:08:46.389Z,5.97
2017-11-07T04:11:13.881Z,6.03
2017-11-07T04:13:41.393Z,5.98
2017-11-07T04:16:08.900Z,6.20
2017-11-07T04:18:36.409Z,6.16
2017-11-07T04:21:03.920Z,6.04
2017-11-07T04:23:31.412Z,6.01
2017-11-07T04:25:58.905Z,5.91
2017-11-07T04:28:26.427Z,5.98
2017-11-07T04:30:53.922Z,6.11
2017-11-07T04:33:21.414Z,6.05
2017-11-07T04:35:48.918Z,5.98
2017-11-07T04:38:16.425Z,5.89
2017-11-07T04:40:43.955Z,5.90
2017-11-07T04:43:11.461Z,5.91
2017-11-07T04:45:38.995Z,5.92
2017-11-07T04:48:06.509Z,5.93
2017-11-07T04:50:34.019Z,5.88
2017-11-07T04:53:01.517Z,5.85
2017-11-07T04:55:29.025Z,5.86
2017-11-07T04:57:56.537Z,5.88
2017-11-07T05:00:24.037Z,5.84
2017-11-07T05:02:51.550Z,5.87
2017-11-07T05:05:19.060Z,5.94
2017-11-07T05:07:46.558Z,5.88
2017-11-07T05:10:14.059Z,5.88
2017-11-07T05:12:41.566Z,5.87
2017-11-07T05:15:09.074Z,5.95
2017-11-07T05:17:36.591Z,5.82
2017-11-07T05:20:04.115Z,5.79
2017-11-07T05:22:31.622Z,5.90
2017-11-07T05:24:59.138Z,5.80
2017-11-07T05:27:26.715Z,5.83
2017-11-07T05:29:54.239Z,5.83
2017-11-07T05:32:21.724Z,5.80
2017-11-07T05:34:49.227Z,5.91
2017-11-07T05:37:16.743Z,5.83
2017-11-07T05:39:44.345Z,5.98
2017-11-07T05:42:11.860Z,5.87
2017-11-07T05:44:39.362Z,5.92
2017-11-07T05:47:06.864Z,5.91
2017-11-07T05:49:34.378Z,5.85
2017-11-07T05:52:01.901Z,6.04
2017-11-07T05:54:29.414Z,5.91
2017-11-07T05:56:56.912Z,6.02
2017-11-07T05:59:24.432Z,6.00
2017-11-07T06:01:51.928Z,5.93
2017-11-07T06:04:19.444Z,5.92
2017-11-07T06:06:46.954Z,6.07
2017-11-07T06:09:14.495Z,6.07
2017-11-07T06:11:42.009Z,6.12
2017-11-07T06:14:09.522Z,6.15
2017-11-07T06:16:37.040Z,6.10
2017-11-07T06:19:04.552Z,6.10
2017-11-07T06:21:32.054Z,6.10
2017-11-07T06:23:59.594Z,6.19
2017-11-07T06:26:27.097Z,6.12
2017-11-07T06:28:54.597Z,6.19
2017-11-07T06:31:22.107Z,6.33
2017-11-07T06:33:50.594Z,6.10
2017-11-07T06:36:18.100Z,6.09
2017-11-07T06:38:45.620Z,6.05
2017-11-07T06:41:13.118Z,5.99
2017-11-07T06:43:40.626Z,6.09
2017-11-07T06:46:08.134Z,6.01
2017-11-07T06:48:35.634Z,6.14
2017-11-07T06:51:03.141Z,5.94
2017-11-07T06:53:30.647Z,6.08
2017-11-07T06:55:58.173Z,6.00
2017-11-07T06:58:25.688Z,6.07
2017-11-07T07:00:53.194Z,6.02
2017-11-07T07:03:20.696Z,6.11
2017-11-07T07:05:48.193Z,6.22
2017-11-07T07:08:15.702Z,6.07
2017-11-07T07:10:43.215Z,6.10
2017-11-07T07:13:10.709Z,6.36
2017-11-07T07:15:38.326Z,6.24
2017-11-07T07:18:05.831Z,6.29
2017-11-07T07:20:33.330Z,6.29
2017-11-07T07:23:00.852Z,6.19
2017-11-07T07:25:28.373Z,6.20
2017-11-07T07:27:55.874Z,6.40
2017-11-07T07:30:23.371Z,6.15
2017-11-07T07:32:50.897Z,6.24
2017-11-07T07:35:18.411Z,6.18
2017-11-07T07:37:45.938Z,6.32
2017-11-07T07:40:13.441Z,6.08
2017-11-07T07:42:40.943Z,6.07
2017-11-07T07:45:08.436Z,6.00
2017-11-07T07:47:35.943Z,5.96
2017-11-07T07:50:03.470Z,6.02
2017-11-07T07:52:31.043Z,5.97
2017-11-07T07:54:58.603Z,6.09
2017-11-07T07:57:26.094Z,6.17
2017-11-07T07:59:53.595Z,6.19
2017-11-07T08:02:21.107Z,5.99
2017-11-07T08:04:48.603Z,6.11
2017-11-07T08:07:16.123Z,6.11
2017-11-07T08:09:43.630Z,6.20
2017-11-07T08:12:11.150Z,6.18
2017-11-07T08:14:38.648Z,6.15
2017-11-07T08:17:06.150Z,6.17
2017-11-07T08:19:33.659Z,6.23
2017-11-07T08:22:01.181Z,6.35
2017-11-07T08:24:28.797Z,6.25
2017-11-07T08:26:56.291Z,6.44
2017-11-07T08:29:23.818Z,6.50
2017-11-07T08:31:51.315Z,6.51
2017-11-07T08:34:18.819Z,6.39
2017-11-07T08:36:46.330Z,6.47
2017-11-07T08:39:13.867Z,6.48
2017-11-07T08:41:41.383Z,6.53
2017-11-07T08:44:08.883Z,6.44
2017-11-07T08:46:36.382Z,6.50
2017-11-07T08:49:03.883Z,6.57
2017-11-07T08:51:31.407Z,6.53
2017-11-07T08:53:58.916Z,6.50
2017-11-07T08:56:26.430Z,6.71
2017-11-07T08:58:53.926Z,6.61
2017-11-07T09:01:21.421Z,6.68
2017-11-07T09:03:48.934Z,6.59
2017-11-07T09:06:16.437Z,6.62
2017-11-07T09:08:43.932Z,6.79
2017-11-07T09:11:11.450Z,6.63
2017-11-07T09:13:38.971Z,6.63
2017-11-07T09:16:06.465Z,6.67
2017-11-07T09:18:33.966Z,6.61
2017-11-07T09:21:01.468Z,6.54
2017-11-07T09:23:28.983Z,6.50
2017-11-07T09:25:56.525Z,6.64
2017-11-07T09:28:24.027Z,6.69
2017-11-07T09:30:51.541Z,6.62
2017-11-07T09:33:19.042Z,6.59
2017-11-07T09:35:46.566Z,6.61
2017-11-07T09:38:14.071Z,6.61
2017-11-07T09:40:41.572Z,6.66
2017-11-07T09:43:09.144Z,6.74
2017-11-07T09:45:36.667Z,7.11
2017-11-07T09:48:04.183Z,6.89
2017-11-07T09:50:31.696Z,6.94
2017-11-07T09:52:59.202Z,6.93
2017-11-07T09:55:26.690Z,6.98
2017-11-07T09:57:54.195Z,7.02
2017-11-07T10:00:21.722Z,7.12
2017-11-07T10:02:49.246Z,7.16
2017-11-07T10:05:16.765Z,7.09
2017-11-07T10:07:44.268Z,7.34
2017-11-07T10:10:11.782Z,7.48
2017-11-07T10:12:39.613Z,7.37
2017-11-07T10:15:07.123Z,7.22
2017-11-07T10:17:34.614Z,7.28
2017-11-07T10:20:02.105Z,7.67
2017-11-07T10:22:29.611Z,7.53
2017-11-07T10:24:57.245Z,7.60
2017-11-07T10:27:24.777Z,7.34
2017-11-07T10:29:52.285Z,7.34
2017-11-07T10:32:19.828Z,7.51
2017-11-07T10:34:47.326Z,7.41
2017-11-07T10:37:14.829Z,7.42
2017-11-07T10:39:42.334Z,7.38
2017-11-07T10:42:09.845Z,7.50
2017-11-07T10:44:37.559Z,7.29
2017-11-07T10:47:05.083Z,7.53
2017-11-07T10:49:32.603Z,7.49
2017-11-07T10:52:00.174Z,7.68
2017-11-07T10:54:27.734Z,7.68
2017-11-07T10:56:55.259Z,7.70
2017-11-07T10:59:22.777Z,7.94
2017-11-07T11:01:50.293Z,7.69
2017-11-07T11:04:17.801Z,7.79
2017-11-07T11:06:45.307Z,7.87
2017-11-07T11:09:12.805Z,7.92
2017-11-07T11:11:40.322Z,8.01
2017-11-07T11:14:07.835Z,7.90
2017-11-07T11:16:35.334Z,7.95
2017-11-07T11:19:02.827Z,7.94
2017-11-07T11:21:30.345Z,7.93
2017-11-07T11:23:57.872Z,8.05
2017-11-07T11:26:25.369Z,8.09
2017-11-07T11:28:52.861Z,7.99
2017-11-07T11:31:20.383Z,7.98
2017-11-07T11:33:47.891Z,7.99
2017-11-07T11:36:15.513Z,8.05
2017-11-07T11:38:43.073Z,8.05
2017-11-07T11:41:10.581Z,8.01
2017-11-07T11:43:38.090Z,7.81
2017-11-07T11:46:05.607Z,7.81
2017-11-07T11:48:33.128Z,7.85
2017-11-07T11:51:00.653Z,7.79
2017-11-07T11:53:28.147Z,7.86
2017-11-07T11:55:55.669Z,7.79
2017-11-07T11:58:23.167Z,7.76
2017-11-07T12:00:50.660Z,7.70
2017-11-07T12:03:18.190Z,7.70
2017-11-07T12:05:45.693Z,7.72
2017-11-07T12:08:13.211Z,7.88
2017-11-07T12:10:40.712Z,7.86
2017-11-07T12:13:08.235Z,7.78
2017-11-07T12:15:35.768Z,7.72
2017-11-07T12:18:03.267Z,7.66
2017-11-07T12:20:30.829Z,7.64
2017-11-07T12:22:58.344Z,7.72
2017-11-07T12:25:25.854Z,7.73
2017-11-07T12:27:53.378Z,7.90
2017-11-07T12:30:21.016Z,7.94
2017-11-07T12:32:48.541Z,7.75
2017-11-07T12:35:16.055Z,7.81
2017-11-07T12:37:43.575Z,7.89
2017-11-07T12:40:11.078Z,7.94
2017-11-07T12:42:38.587Z,7.82
2017-11-07T12:45:06.101Z,7.81
2017-11-07T12:47:33.609Z,7.88
2017-11-07T12:53:03.188Z,7.93
2017-11-07T12:55:30.702Z,8.01
2017-11-07T12:57:58.214Z,7.86
2017-11-07T13:00:25.736Z,7.72
2017-11-07T13:02:53.252Z,7.67
2017-11-07T13:05:20.753Z,7.65
2017-11-07T13:07:48.258Z,7.69
2017-11-07T13:10:15.786Z,7.62
2017-11-07T13:12:43.281Z,7.79
2017-11-07T13:15:10.787Z,7.80
2017-11-07T13:17:38.401Z,7.78
2017-11-07T13:20:05.921Z,8.00
2017-11-07T13:22:33.463Z,7.94
2017-11-07T13:25:00.973Z,7.87
2017-11-07T13:27:28.505Z,7.79
2017-11-07T13:29:56.026Z,8.02
2017-11-07T13:32:23.541Z,7.84
2017-11-07T13:34:51.068Z,7.78
2017-11-07T13:37:18.668Z,7.81
2017-11-07T13:39:46.166Z,7.80
2017-11-07T13:42:13.664Z,7.91
2017-11-07T13:44:41.183Z,7.97
2017-11-07T13:47:08.673Z,8.10
2017-11-07T13:49:36.183Z,8.16
2017-11-07T13:52:03.686Z,8.22
2017-11-07T13:54:31.222Z,8.24
2017-11-07T13:56:58.725Z,8.12
2017-11-07T13:59:26.252Z,8.02
2017-11-07T14:01:53.844Z,8.06
2017-11-07T14:04:21.403Z,8.11
2017-11-07T14:06:48.927Z,8.16
2017-11-07T14:09:16.465Z,8.31
2017-11-07T14:11:43.975Z,8.12
2017-11-07T14:14:11.593Z,8.17
2017-11-07T14:16:39.101Z,8.19
2017-11-07T14:19:06.606Z,8.09
2017-11-07T14:21:34.109Z,8.04
2017-11-07T14:24:01.622Z,8.12
2017-11-07T14:26:29.130Z,8.21
2017-11-07T14:28:56.639Z,8.16
2017-11-07T14:31:24.153Z,8.23
2017-11-07T14:33:51.654Z,8.12
2017-11-07T14:36:19.183Z,7.99
2017-11-07T14:38:46.686Z,7.88
2017-11-07T14:41:14.192Z,7.80
2017-11-07T14:43:41.706Z,7.80
2017-11-07T14:46:09.494Z,7.91
2017-11-07T14:48:37.006Z,7.99
2017-11-07T14:51:04.529Z,8.02
2017-11-07T14:53:32.045Z,7.91
2017-11-07T14:55:59.546Z,8.00
2017-11-07T14:58:27.050Z,8.00
2017-11-07T15:00:54.558Z,7.94
2017-11-07T15:03:22.061Z,7.95
2017-11-07T15:05:49.606Z,7.91
2017-11-07T15:08:17.157Z,8.00
2017-11-07T15:10:44.672Z,7.90
2017-11-07T15:13:12.193Z,7.74
2017-11-07T15:15:39.735Z,7.69
2017-11-07T15:18:07.241Z,7.81
2017-11-07T15:20:34.754Z,7.81
2017-11-07T15:23:02.375Z,7.71
2017-11-07T15:25:29.904Z,8.08
2017-11-07T15:27:57.688Z,7.97
2017-11-07T15:30:25.210Z,7.77
2017-11-07T15:32:52.748Z,7.75
2017-11-07T15:35:20.289Z,7.90
2017-11-07T15:37:47.834Z,7.83
2017-11-07T15:40:15.366Z,7.82
2017-11-07T15:42:42.884Z,7.89
2017-11-07T15:45:10.402Z,7.73
2017-11-07T15:47:37.910Z,7.56
2017-11-07T15:50:05.423Z,7.61
2017-11-07T15:52:32.933Z,7.64
2017-11-07T15:55:00.476Z,7.71
2017-11-07T15:57:28.163Z,7.67
2017-11-07T15:59:55.694Z,7.80
2017-11-07T16:02:23.193Z,7.73
2017-11-07T16:04:50.736Z,7.76
2017-11-07T16:07:18.241Z,7.69
2017-11-07T16:09:45.743Z,7.58
2017-11-07T16:12:13.540Z,7.60
2017-11-07T16:14:41.044Z,7.75
2017-11-07T16:17:08.578Z,7.63
2017-11-07T16:19:36.087Z,7.70
2017-11-07T16:22:03.617Z,7.73
2017-11-07T16:24:31.159Z,7.74
2017-11-07T16:26:58.689Z,7.79
2017-11-07T16:29:26.209Z,7.67
2017-11-07T16:31:53.762Z,7.80
2017-11-07T16:34:21.318Z,7.66
2017-11-07T16:36:48.851Z,7.69
2017-11-07T16:39:16.364Z,7.70
2017-11-07T16:41:43.895Z,7.68
2017-11-07T16:44:11.399Z,7.64
2017-11-07T16:46:38.899Z,7.60
2017-11-07T16:49:06.406Z,7.66
2017-11-07T16:51:33.923Z,7.50
2017-11-07T16:54:01.539Z,7.56
2017-11-07T16:56:29.045Z,7.55
2017-11-07T16:58:56.563Z,7.58
2017-11-07T17:01:24.306Z,7.71
2017-11-07T17:03:51.807Z,7.64
2017-11-07T17:06:19.321Z,7.54
2017-11-07T17:08:46.832Z,7.56
2017-11-07T17:11:14.339Z,7.52
2017-11-07T17:13:41.880Z,7.60
2017-11-07T17:16:09.393Z,7.67
2017-11-07T17:18:36.925Z,7.61
2017-11-07T17:21:04.442Z,7.69
2017-11-07T17:23:31.976Z,7.77
2017-11-07T17:25:59.645Z,7.72
2017-11-07T17:28:27.145Z,7.54
2017-11-07T17:30:54.707Z,7.67
2017-11-07T17:33:22.221Z,7.70
2017-11-07T17:35:49.751Z,7.68
2017-11-07T17:38:17.266Z,7.56
2017-11-07T17:40:44.781Z,7.52
2017-11-07T17:43:12.291Z,7.54
2017-11-07T17:45:39.798Z,7.60
2017-11-07T17:48:07.320Z,7.49
2017-11-07T17:50:34.833Z,7.49
2017-11-07T17:53:02.357Z,7.44
2017-11-07T17:55:29.888Z,7.73
2017-11-07T17:57:57.403Z,7.62
2017-11-07T18:00:24.938Z,7.58
2017-11-07T18:02:52.454Z,7.46
2017-11-07T18:05:20.011Z,7.44
2017-11-07T18:07:47.550Z,7.37
2017-11-07T18:10:15.056Z,7.40
2017-11-07T18:12:42.613Z,7.39
2017-11-07T18:15:10.110Z,7.43
2017-11-07T18:17:37.648Z,7.41
2017-11-07T18:20:05.202Z,7.41
2017-11-07T18:22:32.718Z,7.51
2017-11-07T18:25:00.241Z,7.41
2017-11-07T18:27:27.770Z,7.75
2017-11-07T18:29:55.310Z,7.66
2017-11-07T18:32:22.834Z,7.66
2017-11-07T18:34:50.372Z,7.64
2017-11-07T18:37:17.928Z,7.40
2017-11-07T18:39:45.453Z,7.39
2017-11-07T18:42:12.980Z,7.40
2017-11-07T18:44:40.528Z,7.52
2017-11-07T18:47:08.038Z,7.40
2017-11-07T18:49:35.545Z,7.48
2017-11-07T18:52:03.092Z,7.42
2017-11-07T18:54:30.682Z,7.41
2017-11-07T18:56:58.248Z,7.36
2017-11-07T18:59:25.784Z,7.37
2017-11-07T19:01:53.281Z,7.35
2017-11-07T19:04:20.829Z,7.27
2017-11-07T19:06:48.476Z,7.44
2017-11-07T19:09:16.009Z,7.36
2017-11-07T19:11:43.528Z,7.49
2017-11-07T19:14:11.051Z,7.40
2017-11-07T19:16:38.939Z,7.46
2017-11-07T19:19:06.451Z,7.39
2017-11-07T19:21:34.077Z,7.46
2017-11-07T19:24:01.583Z,7.40
2017-11-07T19:26:29.139Z,7.36
2017-11-07T19:28:56.665Z,7.38
2017-11-07T19:31:24.168Z,7.32
2017-11-07T19:33:51.738Z,7.41
2017-11-07T19:36:19.287Z,7.41
2017-11-07T19:38:46.809Z,7.58
2017-11-07T19:41:14.333Z,7.46
2017-11-07T19:43:41.900Z,7.39
2017-11-07T19:46:09.415Z,7.30
2017-11-07T19:48:36.957Z,7.31
2017-11-07T19:51:04.472Z,7.37
2017-11-07T19:53:32.011Z,7.30
2017-11-07T19:55:59.532Z,7.39
2017-11-07T19:58:27.051Z,7.27
2017-11-07T20:00:54.575Z,7.28
2017-11-07T20:03:22.177Z,7.27
2017-11-07T20:05:49.687Z,7.34
2017-11-07T20:08:17.207Z,7.37
2017-11-07T20:10:44.750Z,7.39
2017-11-07T20:13:12.301Z,7.37
2017-11-07T20:15:39.823Z,7.35
2017-11-07T20:18:07.347Z,7.36
2017-11-07T20:20:34.903Z,7.19
2017-11-07T20:23:02.436Z,7.30
2017-11-07T20:25:29.958Z,7.44
2017-11-07T20:27:57.611Z,7.38
2017-11-07T20:30:25.120Z,7.37
2017-11-07T20:32:52.641Z,7.32
2017-11-07T20:35:20.288Z,7.26
2017-11-07T20:37:47.825Z,7.32
2017-11-07T20:40:15.385Z,7.32
2017-11-07T20:42:42.905Z,7.37
2017-11-07T20:45:10.425Z,7.51
2017-11-07T20:47:37.949Z,7.38
2017-11-07T20:50:05.477Z,7.43
2017-11-07T20:52:33.047Z,7.40
2017-11-07T20:55:00.553Z,7.34
2017-11-07T20:57:28.088Z,7.37
2017-11-07T20:59:55.594Z,7.28
2017-11-07T21:02:23.119Z,7.30
2017-11-07T21:04:50.646Z,7.43
2017-11-07T21:07:18.153Z,7.33
2017-11-07T21:09:45.683Z,7.39
2017-11-07T21:12:13.219Z,7.30
2017-11-07T21:14:40.730Z,7.27
2017-11-07T21:17:08.406Z,7.35
2017-11-07T21:19:36.711Z,7.35
2017-11-07T21:22:04.247Z,7.32
2017-11-07T21:24:31.800Z,7.32
2017-11-07T21:26:59.325Z,7.20
2017-11-07T21:29:26.821Z,7.28
2017-11-07T21:31:54.421Z,7.30
2017-11-07T21:34:22.922Z,7.33
2017-11-07T21:36:50.423Z,7.25
2017-11-07T21:39:17.936Z,7.26
2017-11-07T21:41:45.443Z,7.42
2017-11-07T21:44:12.988Z,7.32
2017-11-07T21:46:40.488Z,7.26
2017-11-07T21:49:08.011Z,7.38
2017-11-07T21:51:35.519Z,7.31
2017-11-07T21:54:03.059Z,7.33
2017-11-07T21:56:30.590Z,7.24
2017-11-07T21:58:58.106Z,7.24
2017-11-07T22:01:25.639Z,7.33
2017-11-07T22:03:53.142Z,7.31
2017-11-07T22:06:20.646Z,7.30
2017-11-07T22:08:48.159Z,7.30
2017-11-07T22:11:15.657Z,7.29
2017-11-07T22:13:43.258Z,7.38
2017-11-07T22:16:10.784Z,7.36
2017-11-07T22:18:38.289Z,7.43
2017-11-07T22:21:05.818Z,7.45
2017-11-07T22:23:39.094Z,7.26
2017-11-07T22:26:06.618Z,7.35
2017-11-07T22:28:34.146Z,7.40
2017-11-07T22:31:01.671Z,7.32
2017-11-07T22:33:29.207Z,7.44
2017-11-07T22:35:56.706Z,7.68
2017-11-07T22:38:24.218Z,7.54
2017-11-07T22:40:51.737Z,7.39
2017-11-07T22:43:19.290Z,7.42
2017-11-07T22:45:46.801Z,7.27
2017-11-07T22:48:14.306Z,7.35
2017-11-07T22:50:41.807Z,7.29
2017-11-07T22:53:09.334Z,7.26
2017-11-07T22:55:36.842Z,7.31
2017-11-07T22:58:04.454Z,7.27
2017-11-07T23:00:32.096Z,7.26
2017-11-07T23:02:59.611Z,7.24
2017-11-07T23:05:27.127Z,7.30
2017-11-07T23:07:54.642Z,7.30
2017-11-07T23:10:22.225Z,7.35
2017-11-07T23:12:49.754Z,7.27
2017-11-07T23:15:17.295Z,7.24
2017-11-07T23:17:44.798Z,7.28
2017-11-07T23:20:12.337Z,7.31
2017-11-07T23:22:39.870Z,7.33
2017-11-07T23:25:07.375Z,7.46
2017-11-07T23:27:34.933Z,7.39
2017-11-07T23:30:02.454Z,7.31
2017-11-07T23:32:29.954Z,7.39
2017-11-07T23:34:57.483Z,7.31
2017-11-07T23:37:24.989Z,7.22
2017-11-07T23:39:52.495Z,7.19
2017-11-07T23:42:20.114Z,7.21
2017-11-07T23:44:47.615Z,7.21
2017-11-07T23:47:15.121Z,7.18
2017-11-07T23:49:42.622Z,7.22
2017-11-07T23:52:10.123Z,7.17
2017-11-07T23:54:37.651Z,7.18
2017-11-07T23:57:05.151Z,7.24
2017-11-07T23:59:32.674Z,7.30
